sensor_id;sensor_type;location;lat;lon;timestamp;P1;durP1;ratioP1;P2;durP2;ratioP2
30553;SDS011;17335;50.720;7.452;2023-02-01T00:00:27;19.52;;;8.23;;
30553;SDS011;17335;50.720;7.452;2023-02-01T00:02:53;25.23;;;7.90;;
30553;SDS011;17335;50.720;7.452;2023-02-01T00:05:20;19.38;;;8.38;;
30553;SDS011;17335;50.720;7.452;2023-02-01T00:07:47;24.65;;;7.10;;
30553;SDS011;17335;50.720;7.452;2023-02-01T00:10:15;25.40;;;8.05;;
30553;SDS011;17335;50.720;7.452;2023-02-01T00:12:41;15.50;;;7.53;;
30553;SDS011;17335;50.720;7.452;2023-02-01T00:15:08;21.23;;;7.95;;
30553;SDS011;17335;50.720;7.452;2023-02-01T00:20:03;15.98;;;7.32;;
30553;SDS011;17335;50.720;7.452;2023-02-01T00:22:30;20.05;;;7.78;;
30553;SDS011;17335;50.720;7.452;2023-02-01T00:24:56;16.77;;;7.35;;
30553;SDS011;17335;50.720;7.452;2023-02-01T00:27:22;24.67;;;7.45;;
30553;SDS011;17335;50.720;7.452;2023-02-01T00:29:49;14.68;;;7.25;;
30553;SDS011;17335;50.720;7.452;2023-02-01T00:32:15;17.85;;;7.60;;
30553;SDS011;17335;50.720;7.452;2023-02-01T00:34:42;24.83;;;7.47;;
30553;SDS011;17335;50.720;7.452;2023-02-01T00:37:08;25.83;;;7.40;;
30553;SDS011;17335;50.720;7.452;2023-02-01T00:39:34;21.90;;;7.88;;
30553;SDS011;17335;50.720;7.452;2023-02-01T00:42:01;22.98;;;8.13;;
30553;SDS011;17335;50.720;7.452;2023-02-01T00:44:28;17.90;;;7.75;;
30553;SDS011;17335;50.720;7.452;2023-02-01T00:46:59;17.20;;;7.78;;
30553;SDS011;17335;50.720;7.452;2023-02-01T00:49:26;20.63;;;7.43;;
30553;SDS011;17335;50.720;7.452;2023-02-01T00:51:53;17.92;;;7.85;;
30553;SDS011;17335;50.720;7.452;2023-02-01T00:54:19;22.58;;;7.90;;
30553;SDS011;17335;50.720;7.452;2023-02-01T00:56:45;21.77;;;8.18;;
30553;SDS011;17335;50.720;7.452;2023-02-01T00:59:12;19.50;;;7.38;;
30553;SDS011;17335;50.720;7.452;2023-02-01T01:01:38;22.05;;;6.63;;
30553;SDS011;17335;50.720;7.452;2023-02-01T01:04:05;20.70;;;6.97;;
30553;SDS011;17335;50.720;7.452;2023-02-01T01:06:32;18.65;;;7.63;;
30553;SDS011;17335;50.720;7.452;2023-02-01T01:09:01;19.88;;;6.47;;
30553;SDS011;17335;50.720;7.452;2023-02-01T01:11:30;18.35;;;6.65;;
30553;SDS011;17335;50.720;7.452;2023-02-01T01:13:59;13.57;;;4.93;;
30553;SDS011;17335;50.720;7.452;2023-02-01T01:16:26;24.33;;;5.72;;
30553;SDS011;17335;50.720;7.452;2023-02-01T01:18:54;17.90;;;5.75;;
30553;SDS011;17335;50.720;7.452;2023-02-01T01:21:21;16.05;;;5.57;;
30553;SDS011;17335;50.720;7.452;2023-02-01T01:23:48;18.08;;;5.10;;
30553;SDS011;17335;50.720;7.452;2023-02-01T01:26:18;14.98;;;5.20;;
30553;SDS011;17335;50.720;7.452;2023-02-01T01:28:48;24.23;;;5.20;;
30553;SDS011;17335;50.720;7.452;2023-02-01T01:31:15;20.05;;;4.10;;
30553;SDS011;17335;50.720;7.452;2023-02-01T01:33:43;20.52;;;5.43;;
30553;SDS011;17335;50.720;7.452;2023-02-01T01:36:11;14.90;;;4.43;;
30553;SDS011;17335;50.720;7.452;2023-02-01T01:38:38;11.10;;;3.75;;
30553;SDS011;17335;50.720;7.452;2023-02-01T01:41:06;16.23;;;4.10;;
30553;SDS011;17335;50.720;7.452;2023-02-01T01:46:15;11.52;;;3.17;;
30553;SDS011;17335;50.720;7.452;2023-02-01T01:48:43;17.95;;;3.47;;
30553;SDS011;17335;50.720;7.452;2023-02-01T01:51:11;14.15;;;3.83;;
30553;SDS011;17335;50.720;7.452;2023-02-01T01:53:42;12.80;;;4.03;;
30553;SDS011;17335;50.720;7.452;2023-02-01T01:56:11;12.80;;;3.75;;
30553;SDS011;17335;50.720;7.452;2023-02-01T01:58:38;13.23;;;3.10;;
30553;SDS011;17335;50.720;7.452;2023-02-01T02:11:32;11.32;;;3.92;;
30553;SDS011;17335;50.720;7.452;2023-02-01T02:13:58;13.90;;;3.40;;
30553;SDS011;17335;50.720;7.452;2023-02-01T02:24:52;17.73;;;3.92;;
30553;SDS011;17335;50.720;7.452;2023-02-01T02:38:13;9.73;;;3.03;;
30553;SDS011;17335;50.720;7.452;2023-02-01T02:46:39;10.93;;;3.20;;
30553;SDS011;17335;50.720;7.452;2023-02-01T02:49:51;12.35;;;3.42;;
30553;SDS011;17335;50.720;7.452;2023-02-01T02:53:09;15.23;;;3.55;;
30553;SDS011;17335;50.720;7.452;2023-02-01T02:55:59;14.00;;;3.13;;
30553;SDS011;17335;50.720;7.452;2023-02-01T02:58:47;13.77;;;4.43;;
30553;SDS011;17335;50.720;7.452;2023-02-01T03:01:33;15.10;;;3.38;;
30553;SDS011;17335;50.720;7.452;2023-02-01T03:04:18;15.82;;;3.97;;
30553;SDS011;17335;50.720;7.452;2023-02-01T03:06:47;8.27;;;2.72;;
30553;SDS011;17335;50.720;7.452;2023-02-01T03:09:16;14.73;;;4.13;;
30553;SDS011;17335;50.720;7.452;2023-02-01T03:11:48;13.13;;;3.33;;
30553;SDS011;17335;50.720;7.452;2023-02-01T03:14:37;15.52;;;3.97;;
30553;SDS011;17335;50.720;7.452;2023-02-01T03:17:17;16.25;;;3.75;;
30553;SDS011;17335;50.720;7.452;2023-02-01T03:19:48;18.33;;;4.03;;
30553;SDS011;17335;50.720;7.452;2023-02-01T03:22:21;18.17;;;3.70;;
30553;SDS011;17335;50.720;7.452;2023-02-01T03:24:54;14.20;;;3.75;;
30553;SDS011;17335;50.720;7.452;2023-02-01T03:27:34;14.70;;;3.60;;
30553;SDS011;17335;50.720;7.452;2023-02-01T03:33:04;20.92;;;4.00;;
30553;SDS011;17335;50.720;7.452;2023-02-01T03:35:45;22.65;;;4.20;;
30553;SDS011;17335;50.720;7.452;2023-02-01T03:41:17;14.73;;;4.25;;
30553;SDS011;17335;50.720;7.452;2023-02-01T03:46:30;17.75;;;3.45;;
30553;SDS011;17335;50.720;7.452;2023-02-01T03:49:01;11.88;;;3.33;;
30553;SDS011;17335;50.720;7.452;2023-02-01T03:51:31;15.35;;;3.53;;
30553;SDS011;17335;50.720;7.452;2023-02-01T03:53:58;11.90;;;4.35;;
30553;SDS011;17335;50.720;7.452;2023-02-01T03:56:27;18.83;;;3.95;;
30553;SDS011;17335;50.720;7.452;2023-02-01T03:58:55;19.17;;;4.20;;
30553;SDS011;17335;50.720;7.452;2023-02-01T04:01:26;13.98;;;3.33;;
30553;SDS011;17335;50.720;7.452;2023-02-01T04:03:54;13.88;;;3.45;;
30553;SDS011;17335;50.720;7.452;2023-02-01T04:06:21;14.77;;;3.53;;
30553;SDS011;17335;50.720;7.452;2023-02-01T04:08:48;10.95;;;3.63;;
30553;SDS011;17335;50.720;7.452;2023-02-01T04:11:14;19.55;;;3.55;;
30553;SDS011;17335;50.720;7.452;2023-02-01T04:13:41;17.60;;;3.72;;
30553;SDS011;17335;50.720;7.452;2023-02-01T04:16:08;12.82;;;3.47;;
30553;SDS011;17335;50.720;7.452;2023-02-01T04:18:35;13.27;;;3.35;;
30553;SDS011;17335;50.720;7.452;2023-02-01T04:21:02;13.90;;;3.55;;
30553;SDS011;17335;50.720;7.452;2023-02-01T04:23:29;19.05;;;4.13;;
30553;SDS011;17335;50.720;7.452;2023-02-01T04:26:01;10.05;;;2.97;;
30553;SDS011;17335;50.720;7.452;2023-02-01T04:28:28;16.00;;;3.60;;
30553;SDS011;17335;50.720;7.452;2023-02-01T04:30:55;12.73;;;3.17;;
30553;SDS011;17335;50.720;7.452;2023-02-01T04:33:22;16.27;;;4.22;;
30553;SDS011;17335;50.720;7.452;2023-02-01T04:35:49;11.35;;;3.50;;
30553;SDS011;17335;50.720;7.452;2023-02-01T04:38:15;17.52;;;4.10;;
30553;SDS011;17335;50.720;7.452;2023-02-01T04:40:43;10.00;;;3.30;;
30553;SDS011;17335;50.720;7.452;2023-02-01T04:43:09;17.52;;;3.78;;
30553;SDS011;17335;50.720;7.452;2023-02-01T04:45:35;21.52;;;4.60;;
30553;SDS011;17335;50.720;7.452;2023-02-01T04:48:02;14.68;;;3.92;;
30553;SDS011;17335;50.720;7.452;2023-02-01T04:50:29;15.32;;;3.80;;
30553;SDS011;17335;50.720;7.452;2023-02-01T04:52:55;24.88;;;4.13;;
30553;SDS011;17335;50.720;7.452;2023-02-01T04:55:22;8.93;;;3.83;;
30553;SDS011;17335;50.720;7.452;2023-02-01T04:57:48;16.42;;;3.70;;
30553;SDS011;17335;50.720;7.452;2023-02-01T05:00:15;15.13;;;4.15;;
30553;SDS011;17335;50.720;7.452;2023-02-01T05:02:41;14.80;;;4.03;;
30553;SDS011;17335;50.720;7.452;2023-02-01T05:05:08;12.70;;;3.58;;
30553;SDS011;17335;50.720;7.452;2023-02-01T05:07:35;13.25;;;4.68;;
30553;SDS011;17335;50.720;7.452;2023-02-01T05:10:01;13.90;;;3.97;;
30553;SDS011;17335;50.720;7.452;2023-02-01T05:12:27;16.65;;;3.70;;
30553;SDS011;17335;50.720;7.452;2023-02-01T05:15:13;16.10;;;4.22;;
30553;SDS011;17335;50.720;7.452;2023-02-01T05:17:39;27.20;;;4.85;;
30553;SDS011;17335;50.720;7.452;2023-02-01T05:20:06;10.73;;;3.20;;
30553;SDS011;17335;50.720;7.452;2023-02-01T05:22:34;20.17;;;4.20;;
30553;SDS011;17335;50.720;7.452;2023-02-01T05:25:00;15.80;;;3.92;;
30553;SDS011;17335;50.720;7.452;2023-02-01T05:27:28;19.17;;;4.47;;
30553;SDS011;17335;50.720;7.452;2023-02-01T05:29:56;17.48;;;3.90;;
30553;SDS011;17335;50.720;7.452;2023-02-01T05:32:23;15.82;;;4.10;;
30553;SDS011;17335;50.720;7.452;2023-02-01T05:34:49;15.57;;;3.65;;
30553;SDS011;17335;50.720;7.452;2023-02-01T05:37:16;21.92;;;3.78;;
30553;SDS011;17335;50.720;7.452;2023-02-01T05:39:42;20.17;;;3.92;;
30553;SDS011;17335;50.720;7.452;2023-02-01T05:42:09;11.32;;;3.20;;
30553;SDS011;17335;50.720;7.452;2023-02-01T05:44:35;11.80;;;3.53;;
30553;SDS011;17335;50.720;7.452;2023-02-01T05:47:02;19.77;;;3.72;;
30553;SDS011;17335;50.720;7.452;2023-02-01T05:49:28;10.88;;;3.72;;
30553;SDS011;17335;50.720;7.452;2023-02-01T05:51:54;10.98;;;3.35;;
30553;SDS011;17335;50.720;7.452;2023-02-01T05:54:21;9.50;;;3.00;;
30553;SDS011;17335;50.720;7.452;2023-02-01T05:56:47;17.52;;;3.47;;
30553;SDS011;17335;50.720;7.452;2023-02-01T05:59:14;17.10;;;3.90;;
30553;SDS011;17335;50.720;7.452;2023-02-01T06:01:40;10.15;;;3.13;;
30553;SDS011;17335;50.720;7.452;2023-02-01T06:04:07;12.93;;;3.60;;
30553;SDS011;17335;50.720;7.452;2023-02-01T06:06:34;18.52;;;3.75;;
30553;SDS011;17335;50.720;7.452;2023-02-01T06:09:03;17.33;;;3.25;;
30553;SDS011;17335;50.720;7.452;2023-02-01T06:11:30;11.18;;;2.70;;
30553;SDS011;17335;50.720;7.452;2023-02-01T06:13:58;13.07;;;3.45;;
30553;SDS011;17335;50.720;7.452;2023-02-01T06:16:25;17.50;;;3.47;;
30553;SDS011;17335;50.720;7.452;2023-02-01T06:18:52;21.42;;;3.10;;
30553;SDS011;17335;50.720;7.452;2023-02-01T06:21:19;15.05;;;4.22;;
30553;SDS011;17335;50.720;7.452;2023-02-01T06:23:50;11.85;;;2.63;;
30553;SDS011;17335;50.720;7.452;2023-02-01T06:26:17;11.40;;;3.05;;
30553;SDS011;17335;50.720;7.452;2023-02-01T06:28:44;9.82;;;2.97;;
30553;SDS011;17335;50.720;7.452;2023-02-01T06:31:10;14.35;;;3.17;;
30553;SDS011;17335;50.720;7.452;2023-02-01T06:33:38;13.35;;;3.22;;
30553;SDS011;17335;50.720;7.452;2023-02-01T06:36:05;14.43;;;3.03;;
30553;SDS011;17335;50.720;7.452;2023-02-01T06:38:33;14.75;;;2.72;;
30553;SDS011;17335;50.720;7.452;2023-02-01T06:41:03;14.45;;;2.85;;
30553;SDS011;17335;50.720;7.452;2023-02-01T06:43:30;15.93;;;2.83;;
30553;SDS011;17335;50.720;7.452;2023-02-01T06:46:00;11.55;;;2.53;;
30553;SDS011;17335;50.720;7.452;2023-02-01T06:48:28;11.52;;;2.30;;
30553;SDS011;17335;50.720;7.452;2023-02-01T06:50:55;12.57;;;2.60;;
30553;SDS011;17335;50.720;7.452;2023-02-01T06:53:21;12.85;;;2.88;;
30553;SDS011;17335;50.720;7.452;2023-02-01T06:55:51;12.85;;;2.72;;
30553;SDS011;17335;50.720;7.452;2023-02-01T06:58:19;15.60;;;2.80;;
30553;SDS011;17335;50.720;7.452;2023-02-01T07:00:45;9.98;;;2.25;;
30553;SDS011;17335;50.720;7.452;2023-02-01T07:03:12;13.15;;;2.70;;
30553;SDS011;17335;50.720;7.452;2023-02-01T07:05:38;18.92;;;3.17;;
30553;SDS011;17335;50.720;7.452;2023-02-01T07:08:04;9.70;;;2.67;;
30553;SDS011;17335;50.720;7.452;2023-02-01T07:10:31;9.30;;;2.70;;
30553;SDS011;17335;50.720;7.452;2023-02-01T07:12:59;20.15;;;2.80;;
30553;SDS011;17335;50.720;7.452;2023-02-01T07:15:26;11.43;;;2.58;;
30553;SDS011;17335;50.720;7.452;2023-02-01T07:17:55;15.30;;;2.42;;
30553;SDS011;17335;50.720;7.452;2023-02-01T07:20:22;18.92;;;2.90;;
30553;SDS011;17335;50.720;7.452;2023-02-01T07:22:54;10.60;;;2.65;;
30553;SDS011;17335;50.720;7.452;2023-02-01T07:25:21;14.80;;;2.95;;
30553;SDS011;17335;50.720;7.452;2023-02-01T07:27:48;13.60;;;2.85;;
30553;SDS011;17335;50.720;7.452;2023-02-01T07:30:15;12.73;;;3.00;;
30553;SDS011;17335;50.720;7.452;2023-02-01T07:32:42;13.88;;;3.00;;
30553;SDS011;17335;50.720;7.452;2023-02-01T07:35:08;16.38;;;3.20;;
30553;SDS011;17335;50.720;7.452;2023-02-01T07:37:35;20.92;;;2.63;;
30553;SDS011;17335;50.720;7.452;2023-02-01T07:40:01;13.63;;;2.63;;
30553;SDS011;17335;50.720;7.452;2023-02-01T07:42:28;10.30;;;2.95;;
30553;SDS011;17335;50.720;7.452;2023-02-01T07:44:54;14.40;;;3.17;;
30553;SDS011;17335;50.720;7.452;2023-02-01T07:47:20;17.83;;;3.08;;
30553;SDS011;17335;50.720;7.452;2023-02-01T07:49:47;16.08;;;3.42;;
30553;SDS011;17335;50.720;7.452;2023-02-01T07:52:13;18.15;;;4.75;;
30553;SDS011;17335;50.720;7.452;2023-02-01T07:54:42;11.18;;;2.63;;
30553;SDS011;17335;50.720;7.452;2023-02-01T07:57:09;16.63;;;3.13;;
30553;SDS011;17335;50.720;7.452;2023-02-01T07:59:37;11.05;;;3.15;;
30553;SDS011;17335;50.720;7.452;2023-02-01T08:02:24;15.43;;;2.72;;
30553;SDS011;17335;50.720;7.452;2023-02-01T08:04:50;10.98;;;2.88;;
30553;SDS011;17335;50.720;7.452;2023-02-01T08:07:16;13.20;;;3.30;;
30553;SDS011;17335;50.720;7.452;2023-02-01T08:09:43;17.85;;;3.58;;
30553;SDS011;17335;50.720;7.452;2023-02-01T08:12:09;16.15;;;3.35;;
30553;SDS011;17335;50.720;7.452;2023-02-01T08:14:36;21.75;;;3.30;;
30553;SDS011;17335;50.720;7.452;2023-02-01T08:17:02;14.88;;;3.40;;
30553;SDS011;17335;50.720;7.452;2023-02-01T08:19:28;10.25;;;2.63;;
30553;SDS011;17335;50.720;7.452;2023-02-01T08:21:55;12.30;;;3.40;;
30553;SDS011;17335;50.720;7.452;2023-02-01T08:24:21;11.95;;;3.97;;
30553;SDS011;17335;50.720;7.452;2023-02-01T08:26:48;16.80;;;3.92;;
30553;SDS011;17335;50.720;7.452;2023-02-01T08:29:14;14.88;;;2.65;;
30553;SDS011;17335;50.720;7.452;2023-02-01T08:31:41;18.58;;;3.33;;
30553;SDS011;17335;50.720;7.452;2023-02-01T08:34:08;16.25;;;3.38;;
30553;SDS011;17335;50.720;7.452;2023-02-01T08:36:35;8.75;;;3.10;;
30553;SDS011;17335;50.720;7.452;2023-02-01T08:39:01;15.88;;;3.28;;
30553;SDS011;17335;50.720;7.452;2023-02-01T08:41:31;22.13;;;3.50;;
30553;SDS011;17335;50.720;7.452;2023-02-01T08:43:57;15.32;;;3.22;;
30553;SDS011;17335;50.720;7.452;2023-02-01T08:46:24;19.50;;;3.83;;
30553;SDS011;17335;50.720;7.452;2023-02-01T08:48:51;19.65;;;3.05;;
30553;SDS011;17335;50.720;7.452;2023-02-01T08:51:18;15.90;;;4.00;;
30553;SDS011;17335;50.720;7.452;2023-02-01T08:53:46;18.77;;;3.47;;
30553;SDS011;17335;50.720;7.452;2023-02-01T08:56:14;18.60;;;3.25;;
30553;SDS011;17335;50.720;7.452;2023-02-01T08:58:42;16.45;;;3.15;;
30553;SDS011;17335;50.720;7.452;2023-02-01T09:01:09;15.40;;;3.50;;
30553;SDS011;17335;50.720;7.452;2023-02-01T09:03:38;16.63;;;2.95;;
30553;SDS011;17335;50.720;7.452;2023-02-01T09:06:06;19.98;;;3.20;;
30553;SDS011;17335;50.720;7.452;2023-02-01T09:08:35;11.82;;;2.60;;
30553;SDS011;17335;50.720;7.452;2023-02-01T09:11:03;16.95;;;3.85;;
30553;SDS011;17335;50.720;7.452;2023-02-01T09:13:31;11.90;;;2.90;;
30553;SDS011;17335;50.720;7.452;2023-02-01T09:15:59;16.33;;;3.83;;
30553;SDS011;17335;50.720;7.452;2023-02-01T09:18:26;14.38;;;3.55;;
30553;SDS011;17335;50.720;7.452;2023-02-01T09:20:52;12.95;;;3.70;;
30553;SDS011;17335;50.720;7.452;2023-02-01T09:23:19;20.17;;;2.75;;
30553;SDS011;17335;50.720;7.452;2023-02-01T09:25:48;12.27;;;2.83;;
30553;SDS011;17335;50.720;7.452;2023-02-01T09:28:18;15.27;;;3.60;;
30553;SDS011;17335;50.720;7.452;2023-02-01T09:30:45;15.77;;;2.80;;
30553;SDS011;17335;50.720;7.452;2023-02-01T09:33:12;18.58;;;2.90;;
30553;SDS011;17335;50.720;7.452;2023-02-01T09:35:38;17.33;;;3.40;;
30553;SDS011;17335;50.720;7.452;2023-02-01T09:38:05;14.30;;;3.72;;
30553;SDS011;17335;50.720;7.452;2023-02-01T09:40:33;8.77;;;3.05;;
30553;SDS011;17335;50.720;7.452;2023-02-01T09:48:27;16.38;;;2.92;;
30553;SDS011;17335;50.720;7.452;2023-02-01T09:50:57;13.25;;;2.85;;
30553;SDS011;17335;50.720;7.452;2023-02-01T09:53:35;15.40;;;2.80;;
30553;SDS011;17335;50.720;7.452;2023-02-01T09:56:07;13.85;;;3.33;;
30553;SDS011;17335;50.720;7.452;2023-02-01T09:59:42;14.95;;;3.15;;
30553;SDS011;17335;50.720;7.452;2023-02-01T10:01:39;16.85;;;2.63;;
30553;SDS011;17335;50.720;7.452;2023-02-01T10:04:07;17.10;;;2.88;;
30553;SDS011;17335;50.720;7.452;2023-02-01T10:11:46;15.60;;;3.05;;
30553;SDS011;17335;50.720;7.452;2023-02-01T10:22:11;10.13;;;3.42;;
30553;SDS011;17335;50.720;7.452;2023-02-01T10:25:26;14.63;;;2.95;;
30553;SDS011;17335;50.720;7.452;2023-02-01T10:27:57;12.70;;;2.85;;
30553;SDS011;17335;50.720;7.452;2023-02-01T10:30:29;14.70;;;2.55;;
30553;SDS011;17335;50.720;7.452;2023-02-01T10:33:07;14.13;;;2.92;;
30553;SDS011;17335;50.720;7.452;2023-02-01T10:35:45;16.13;;;2.97;;
30553;SDS011;17335;50.720;7.452;2023-02-01T10:38:25;24.55;;;3.25;;
30553;SDS011;17335;50.720;7.452;2023-02-01T10:40:55;22.15;;;3.63;;
30553;SDS011;17335;50.720;7.452;2023-02-01T10:43:30;20.02;;;3.97;;
30553;SDS011;17335;50.720;7.452;2023-02-01T10:46:09;13.75;;;3.10;;
30553;SDS011;17335;50.720;7.452;2023-02-01T10:48:43;18.80;;;3.15;;
30553;SDS011;17335;50.720;7.452;2023-02-01T10:51:19;23.20;;;3.58;;
30553;SDS011;17335;50.720;7.452;2023-02-01T10:53:50;15.13;;;3.17;;
30553;SDS011;17335;50.720;7.452;2023-02-01T10:56:25;14.45;;;2.75;;
30553;SDS011;17335;50.720;7.452;2023-02-01T10:59:02;11.60;;;2.70;;
30553;SDS011;17335;50.720;7.452;2023-02-01T11:01:42;9.02;;;2.50;;
30553;SDS011;17335;50.720;7.452;2023-02-01T11:04:25;10.43;;;3.13;;
30553;SDS011;17335;50.720;7.452;2023-02-01T11:07:04;14.32;;;2.75;;
30553;SDS011;17335;50.720;7.452;2023-02-01T11:09:34;11.80;;;2.83;;
30553;SDS011;17335;50.720;7.452;2023-02-01T11:12:07;12.02;;;2.83;;
30553;SDS011;17335;50.720;7.452;2023-02-01T11:14:49;12.07;;;2.85;;
30553;SDS011;17335;50.720;7.452;2023-02-01T11:17:23;14.93;;;2.88;;
30553;SDS011;17335;50.720;7.452;2023-02-01T11:20:00;9.35;;;2.30;;
30553;SDS011;17335;50.720;7.452;2023-02-01T11:22:32;16.50;;;2.95;;
30553;SDS011;17335;50.720;7.452;2023-02-01T11:24:59;18.48;;;3.05;;
30553;SDS011;17335;50.720;7.452;2023-02-01T11:27:33;10.75;;;3.30;;
30553;SDS011;17335;50.720;7.452;2023-02-01T11:30:13;10.95;;;2.80;;
30553;SDS011;17335;50.720;7.452;2023-02-01T11:32:46;9.95;;;2.53;;
30553;SDS011;17335;50.720;7.452;2023-02-01T11:35:16;10.55;;;2.92;;
30553;SDS011;17335;50.720;7.452;2023-02-01T11:37:54;13.77;;;3.03;;
30553;SDS011;17335;50.720;7.452;2023-02-01T11:40:34;9.80;;;2.50;;
30553;SDS011;17335;50.720;7.452;2023-02-01T11:43:08;12.73;;;2.50;;
30553;SDS011;17335;50.720;7.452;2023-02-01T11:45:41;16.90;;;2.72;;
30553;SDS011;17335;50.720;7.452;2023-02-01T11:48:19;13.98;;;3.42;;
30553;SDS011;17335;50.720;7.452;2023-02-01T11:50:59;12.45;;;2.58;;
30553;SDS011;17335;50.720;7.452;2023-02-01T11:57:12;11.30;;;2.70;;
30553;SDS011;17335;50.720;7.452;2023-02-01T12:11:06;16.52;;;2.90;;
30553;SDS011;17335;50.720;7.452;2023-02-01T12:16:51;13.07;;;2.58;;
30553;SDS011;17335;50.720;7.452;2023-02-01T12:27:11;13.32;;;2.58;;
30553;SDS011;17335;50.720;7.452;2023-02-01T12:35:49;16.90;;;2.70;;
30553;SDS011;17335;50.720;7.452;2023-02-01T12:42:32;16.55;;;3.13;;
30553;SDS011;17335;50.720;7.452;2023-02-01T12:44:43;17.77;;;2.95;;
30553;SDS011;17335;50.720;7.452;2023-02-01T12:47:30;7.53;;;2.65;;
30553;SDS011;17335;50.720;7.452;2023-02-01T12:50:03;12.13;;;2.40;;
30553;SDS011;17335;50.720;7.452;2023-02-01T12:52:38;16.77;;;2.67;;
30553;SDS011;17335;50.720;7.452;2023-02-01T12:55:25;14.20;;;2.40;;
30553;SDS011;17335;50.720;7.452;2023-02-01T13:00:52;11.55;;;2.63;;
30553;SDS011;17335;50.720;7.452;2023-02-01T13:06:13;16.90;;;2.92;;
30553;SDS011;17335;50.720;7.452;2023-02-01T13:08:56;13.98;;;2.60;;
30553;SDS011;17335;50.720;7.452;2023-02-01T13:11:39;9.77;;;2.20;;
30553;SDS011;17335;50.720;7.452;2023-02-01T13:17:09;8.50;;;2.05;;
30553;SDS011;17335;50.720;7.452;2023-02-01T13:19:43;11.95;;;2.60;;
30553;SDS011;17335;50.720;7.452;2023-02-01T13:22:27;15.63;;;2.65;;
30553;SDS011;17335;50.720;7.452;2023-02-01T13:25:11;11.88;;;2.80;;
30553;SDS011;17335;50.720;7.452;2023-02-01T13:27:39;6.80;;;2.58;;
30553;SDS011;17335;50.720;7.452;2023-02-01T13:36:14;19.20;;;2.65;;
30553;SDS011;17335;50.720;7.452;2023-02-01T13:39:02;14.00;;;2.80;;
30553;SDS011;17335;50.720;7.452;2023-02-01T13:41:39;13.80;;;2.92;;
30553;SDS011;17335;50.720;7.452;2023-02-01T13:44:19;9.95;;;2.45;;
30553;SDS011;17335;50.720;7.452;2023-02-01T13:46:54;11.88;;;2.58;;
30553;SDS011;17335;50.720;7.452;2023-02-01T13:49:25;11.10;;;2.60;;
30553;SDS011;17335;50.720;7.452;2023-02-01T13:51:56;11.73;;;2.28;;
30553;SDS011;17335;50.720;7.452;2023-02-01T13:54:26;8.10;;;2.40;;
30553;SDS011;17335;50.720;7.452;2023-02-01T13:56:55;11.07;;;3.17;;
30553;SDS011;17335;50.720;7.452;2023-02-01T14:05:04;12.20;;;2.40;;
30553;SDS011;17335;50.720;7.452;2023-02-01T14:24:01;8.27;;;2.20;;
30553;SDS011;17335;50.720;7.452;2023-02-01T14:34:21;12.55;;;2.70;;
30553;SDS011;17335;50.720;7.452;2023-02-01T14:42:16;13.13;;;2.58;;
30553;SDS011;17335;50.720;7.452;2023-02-01T14:44:54;12.23;;;3.00;;
30553;SDS011;17335;50.720;7.452;2023-02-01T14:47:41;8.55;;;2.20;;
30553;SDS011;17335;50.720;7.452;2023-02-01T14:50:29;12.25;;;2.28;;
30553;SDS011;17335;50.720;7.452;2023-02-01T14:55:39;6.85;;;2.10;;
30553;SDS011;17335;50.720;7.452;2023-02-01T15:01:03;10.00;;;2.38;;
30553;SDS011;17335;50.720;7.452;2023-02-01T15:06:14;14.35;;;3.25;;
30553;SDS011;17335;50.720;7.452;2023-02-01T15:08:48;9.57;;;2.00;;
30553;SDS011;17335;50.720;7.452;2023-02-01T15:11:15;12.32;;;2.15;;
30553;SDS011;17335;50.720;7.452;2023-02-01T15:13:47;8.48;;;2.67;;
30553;SDS011;17335;50.720;7.452;2023-02-01T15:16:19;13.02;;;2.72;;
30553;SDS011;17335;50.720;7.452;2023-02-01T15:18:46;6.13;;;2.00;;
30553;SDS011;17335;50.720;7.452;2023-02-01T15:21:17;11.60;;;2.47;;
30553;SDS011;17335;50.720;7.452;2023-02-01T15:24:11;8.95;;;2.22;;
30553;SDS011;17335;50.720;7.452;2023-02-01T15:26:44;7.72;;;1.98;;
30553;SDS011;17335;50.720;7.452;2023-02-01T15:29:12;9.95;;;2.30;;
30553;SDS011;17335;50.720;7.452;2023-02-01T15:31:40;19.17;;;2.53;;
30553;SDS011;17335;50.720;7.452;2023-02-01T15:34:13;17.70;;;2.72;;
30553;SDS011;17335;50.720;7.452;2023-02-01T15:36:40;6.45;;;2.17;;
30553;SDS011;17335;50.720;7.452;2023-02-01T15:39:27;11.18;;;1.73;;
30553;SDS011;17335;50.720;7.452;2023-02-01T15:41:56;10.45;;;2.15;;
30553;SDS011;17335;50.720;7.452;2023-02-01T15:44:40;13.05;;;2.35;;
30553;SDS011;17335;50.720;7.452;2023-02-01T15:47:24;9.15;;;2.50;;
30553;SDS011;17335;50.720;7.452;2023-02-01T15:49:55;9.15;;;2.70;;
30553;SDS011;17335;50.720;7.452;2023-02-01T15:55:00;11.98;;;2.15;;
30553;SDS011;17335;50.720;7.452;2023-02-01T15:57:31;9.63;;;2.45;;
30553;SDS011;17335;50.720;7.452;2023-02-01T16:00:07;12.77;;;2.03;;
30553;SDS011;17335;50.720;7.452;2023-02-01T16:02:51;10.80;;;2.38;;
30553;SDS011;17335;50.720;7.452;2023-02-01T16:05:39;7.68;;;2.08;;
30553;SDS011;17335;50.720;7.452;2023-02-01T16:08:13;14.07;;;2.55;;
30553;SDS011;17335;50.720;7.452;2023-02-01T16:10:42;6.82;;;1.92;;
30553;SDS011;17335;50.720;7.452;2023-02-01T16:13:10;11.68;;;1.90;;
30553;SDS011;17335;50.720;7.452;2023-02-01T16:15:38;19.40;;;2.47;;
30553;SDS011;17335;50.720;7.452;2023-02-01T16:18:05;10.48;;;1.90;;
30553;SDS011;17335;50.720;7.452;2023-02-01T16:20:34;8.27;;;2.22;;
30553;SDS011;17335;50.720;7.452;2023-02-01T16:23:02;6.07;;;1.88;;
30553;SDS011;17335;50.720;7.452;2023-02-01T16:25:29;13.75;;;2.83;;
30553;SDS011;17335;50.720;7.452;2023-02-01T16:27:56;8.88;;;1.80;;
30553;SDS011;17335;50.720;7.452;2023-02-01T16:30:23;8.30;;;2.45;;
30553;SDS011;17335;50.720;7.452;2023-02-01T16:32:54;12.50;;;2.05;;
30553;SDS011;17335;50.720;7.452;2023-02-01T16:35:27;11.10;;;2.92;;
30553;SDS011;17335;50.720;7.452;2023-02-01T16:37:58;8.20;;;2.83;;
30553;SDS011;17335;50.720;7.452;2023-02-01T16:40:25;9.20;;;2.38;;
30553;SDS011;17335;50.720;7.452;2023-02-01T16:42:52;12.02;;;3.60;;
30553;SDS011;17335;50.720;7.452;2023-02-01T16:45:21;10.07;;;3.88;;
30553;SDS011;17335;50.720;7.452;2023-02-01T16:47:49;10.15;;;2.83;;
30553;SDS011;17335;50.720;7.452;2023-02-01T16:50:18;13.07;;;3.25;;
30553;SDS011;17335;50.720;7.452;2023-02-01T16:52:49;8.75;;;2.40;;
30553;SDS011;17335;50.720;7.452;2023-02-01T16:55:17;10.60;;;2.53;;
30553;SDS011;17335;50.720;7.452;2023-02-01T16:57:44;9.57;;;2.33;;
30553;SDS011;17335;50.720;7.452;2023-02-01T17:00:11;8.32;;;2.28;;
30553;SDS011;17335;50.720;7.452;2023-02-01T17:02:50;13.00;;;2.65;;
30553;SDS011;17335;50.720;7.452;2023-02-01T17:05:16;11.80;;;2.92;;
30553;SDS011;17335;50.720;7.452;2023-02-01T17:07:43;10.38;;;2.47;;
30553;SDS011;17335;50.720;7.452;2023-02-01T17:10:23;5.57;;;2.05;;
30553;SDS011;17335;50.720;7.452;2023-02-01T17:12:59;14.13;;;3.53;;
30553;SDS011;17335;50.720;7.452;2023-02-01T17:15:26;8.25;;;2.30;;
30553;SDS011;17335;50.720;7.452;2023-02-01T17:17:54;12.65;;;2.63;;
30553;SDS011;17335;50.720;7.452;2023-02-01T17:20:23;15.27;;;3.00;;
30553;SDS011;17335;50.720;7.452;2023-02-01T17:22:52;11.52;;;2.72;;
30553;SDS011;17335;50.720;7.452;2023-02-01T17:25:19;14.90;;;3.08;;
30553;SDS011;17335;50.720;7.452;2023-02-01T17:27:48;9.05;;;2.67;;
30553;SDS011;17335;50.720;7.452;2023-02-01T17:30:15;10.15;;;2.60;;
30553;SDS011;17335;50.720;7.452;2023-02-01T17:32:42;7.53;;;2.72;;
30553;SDS011;17335;50.720;7.452;2023-02-01T17:35:19;9.27;;;2.60;;
30553;SDS011;17335;50.720;7.452;2023-02-01T17:37:48;9.20;;;2.92;;
30553;SDS011;17335;50.720;7.452;2023-02-01T17:40:16;13.60;;;3.00;;